Koun Maru — JK5556 — position and weather

sailwx.info

Track history (hours):
 
Tides and Currents Weather Stations Pressure Air Temp Water Temp Dewpoint Dewpoint Depression Visibility Wind Speed Wind Dir Waves Ship Positions

Koun Maru

Last reported at 2015-Jan-30 17:32 UTC. Time now 2015-Jan-31 13:12 UTC.
Position N 34°38' E 135°27'.

Length 40 m.

Type: Tanker. MMSI: 431401871.

Date/timePositionNaut miles runAvg speedWind from/ knotsBaromVisibWave heightAir tempDewpointWater temp
2015-Jan-30 17:32N 34°38' E 135°27'7 7.4
2015-Jan-30 16:32N 34°37' E 135°18'1111.5
2015-Jan-30 15:32N 34°36' E 135°04'  
2015-Jan-27 06:10N 34°37' E 135°09'610.2
2015-Jan-27 05:33N 34°38' E 135°16'9 0.4
2015-Jan-26 05:29N 34°39' E 135°27'9 9.8
2015-Jan-26 04:32N 34°40' E 135°16'2 1.7
2015-Jan-26 03:23N 34°40' E 135°13'0 0.0
2015-Jan-26 02:34N 34°40' E 135°13'1 1.4
2015-Jan-26 01:33N 34°40' E 135°15'11 3.7
2015-Jan-25 22:30N 34°33' E 135°26'  
2015-Jan-23 07:04N 34°33' E 135°20'7 9.9
2015-Jan-23 06:24N 34°28' E 135°13'15 0.5
2015-Jan-22 00:07N 34°40' E 135°26'7 3.7
2015-Jan-21 22:22N 34°33' E 135°25'5 6.4
2015-Jan-21 21:32N 34°38' E 135°27'2 0.2
2015-Jan-21 08:28N 34°38' E 135°24'1010.3
2015-Jan-21 07:31N 34°36' E 135°13'  
Track history (hours):
 
Tides and Currents Weather Stations Pressure Air Temp Water Temp Dewpoint Dewpoint Depression Visibility Wind Speed Wind Dir Waves Ship Positions

Koun Maru

Last reported at 2015-Jan-30 17:32 UTC. Time now 2015-Jan-31 13:12 UTC.
Position N 34°38' E 135°27'.

Length 40 m.

Type: Tanker. MMSI: 431401871.

Date/timePositionNaut miles runAvg speedWind from/ knotsBaromVisibWave heightAir tempDewpointWater temp
2015-Jan-30 17:32N 34°38' E 135°27'7 7.4
2015-Jan-30 16:32N 34°37' E 135°18'1111.5
2015-Jan-30 15:32N 34°36' E 135°04'  
2015-Jan-27 06:10N 34°37' E 135°09'610.2
2015-Jan-27 05:33N 34°38' E 135°16'9 0.4
2015-Jan-26 05:29N 34°39' E 135°27'9 9.8
2015-Jan-26 04:32N 34°40' E 135°16'2 1.7
2015-Jan-26 03:23N 34°40' E 135°13'0 0.0
2015-Jan-26 02:34N 34°40' E 135°13'1 1.4
2015-Jan-26 01:33N 34°40' E 135°15'11 3.7
2015-Jan-25 22:30N 34°33' E 135°26'  
2015-Jan-23 07:04N 34°33' E 135°20'7 9.9
2015-Jan-23 06:24N 34°28' E 135°13'15 0.5
2015-Jan-22 00:07N 34°40' E 135°26'7 3.7
2015-Jan-21 22:22N 34°33' E 135°25'5 6.4
2015-Jan-21 21:32N 34°38' E 135°27'2 0.2
2015-Jan-21 08:28N 34°38' E 135°24'1010.3
2015-Jan-21 07:31N 34°36' E 135°13'  

Dump ship's entire track history